Time;durP1;ratioP1;P1;durP2;ratioP2;P2;SDS_P1;SDS_P2;PMS_P1;PMS_P2;Temp;Humidity;BMP_temperature;BMP_pressure;BME280_temperature;BME280_humidity;BME280_pressure;Samples;Min_cycle;Max_cycle;Signal;HPM_P1;HPM_P2
2023/10/26 00:00:24;;;;;;;17.48;9.98;;;;;;;;;;5130014;27;19926;-80
2023/10/26 00:02:50;;;;;;;16.08;9.52;;;;;;;;;;5113570;28;20039;-80
2023/10/26 00:05:16;;;;;;;17.58;9.25;;;;;;;;;;5112939;28;20050;-80
2023/10/26 00:07:42;;;;;;;;;;;;;;;;;;5112293;28;20078;-81
2023/10/26 00:10:08;;;;;;;19.02;11.13;;;;;;;;;;5115580;27;20403;-80
2023/10/26 00:12:34;;;;;;;14.82;8.85;;;;;;;;;;5113000;27;20081;-80
2023/10/26 00:15:00;;;;;;;21.65;11.10;;;;;;;;;;5116165;27;20042;-80
2023/10/26 00:17:26;;;;;;;;;;;;;;;;;;5129532;27;20051;-80
2023/10/26 00:19:52;;;;;;;15.57;7.75;;;;;;;;;;5132764;27;19926;-80
2023/10/26 00:22:18;;;;;;;;;;;;;;;;;;5125861;27;20126;-80
2023/10/26 00:24:44;;;;;;;18.38;10.40;;;;;;;;;;5105081;28;19994;-81
2023/10/26 00:27:10;;;;;;;;;;;;;;;;;;5079050;28;20101;-80
2023/10/26 00:29:36;;;;;;;13.45;8.10;;;;;;;;;;5128121;27;19919;-80
2023/10/26 00:32:04;;;;;;;;;;;;;;;;;;5112435;28;20055;-80
2023/10/26 00:34:30;;;;;;;19.08;9.82;;;;;;;;;;5101105;27;20006;-80
2023/10/26 00:36:56;;;;;;;;;;;;;;;;;;5132757;27;20054;-80
2023/10/26 00:39:22;;;;;;;18.73;10.40;;;;;;;;;;5132012;27;19919;-82
2023/10/26 00:41:48;;;;;;;;;;;;;;;;;;5126023;27;20610;-79
2023/10/26 00:44:14;;;;;;;21.50;11.75;;;;;;;;;;5129350;27;19927;-80
2023/10/26 00:46:40;;;;;;;;;;;;;;;;;;5120387;27;20039;-81
2023/10/26 00:49:07;;;;;;;19.73;10.95;;;;;;;;;;5112097;28;19920;-80
2023/10/26 00:51:33;;;;;;;17.23;10.35;;;;;;;;;;5106129;28;20126;-79
2023/10/26 00:53:59;;;;;;;22.02;12.40;;;;;;;;;;5111628;28;20401;-80
2023/10/26 00:56:25;;;;;;;;;;;;;;;;;;5120671;27;20040;-82
2023/10/26 00:58:51;;;;;;;24.20;13.70;;;;;;;;;;5109708;27;20429;-80
2023/10/26 01:01:17;;;;;;;;;;;;;;;;;;5121810;27;20075;-80
2023/10/26 01:03:45;;;;;;;18.83;11.85;;;;;;;;;;5111119;28;20355;-79
2023/10/26 01:06:11;;;;;;;25.23;14.35;;;;;;;;;;5121577;27;20044;-80
2023/10/26 01:08:37;;;;;;;;;;;;;;;;;;5081377;27;20158;-79
2023/10/26 01:11:03;;;;;;;25.70;13.63;;;;;;;;;;5113643;27;19926;-79
2023/10/26 01:13:30;;;;;;;23.65;12.65;;;;;;;;;;5097656;27;20090;-80
2023/10/26 01:15:57;;;;;;;32.92;16.52;;;;;;;;;;5126902;27;20493;-79
2023/10/26 01:18:23;;;;;;;28.70;13.50;;;;;;;;;;5121303;27;20084;-79
2023/10/26 01:20:49;;;;;;;;;;;;;;;;;;5114245;27;20066;-80
2023/10/26 01:23:15;;;;;;;29.58;14.93;;;;;;;;;;5131213;27;20343;-80
2023/10/26 01:25:41;;;;;;;;;;;;;;;;;;5108010;28;20052;-79
2023/10/26 01:28:07;;;;;;;25.33;15.02;;;;;;;;;;5113760;27;19920;-80
2023/10/26 01:30:34;;;;;;;23.27;12.52;;;;;;;;;;5128000;27;20051;-80
2023/10/26 01:33:00;;;;;;;22.00;12.48;;;;;;;;;;5114273;27;20503;-80
2023/10/26 01:35:26;;;;;;;21.90;12.95;;;;;;;;;;5112316;27;20492;-79
2023/10/26 01:37:52;;;;;;;;;;;;;;;;;;5110620;28;20491;-80
2023/10/26 01:40:18;;;;;;;21.90;13.00;;;;;;;;;;5127344;27;20030;-80
2023/10/26 01:42:44;;;;;;;;;;;;;;;;;;5114128;28;20043;-80
2023/10/26 01:45:10;;;;;;;30.40;17.45;;;;;;;;;;5129285;28;20310;-79
2023/10/26 01:47:36;;;;;;;28.10;17.73;;;;;;;;;;5114176;28;20047;-79
2023/10/26 01:50:02;;;;;;;;;;;;;;;;;;5098150;28;20044;-80
2023/10/26 01:52:28;;;;;;;24.98;13.23;;;;;;;;;;5125040;28;20292;-79
2023/10/26 01:54:54;;;;;;;;;;;;;;;;;;5130821;28;20099;-79
2023/10/26 01:57:21;;;;;;;17.77;8.15;;;;;;;;;;5120378;28;19919;-80
2023/10/26 01:59:47;;;;;;;36.30;17.95;;;;;;;;;;5115497;28;20044;-79
2023/10/26 02:02:13;;;;;;;;;;;;;;;;;;5122686;28;20076;-79
2023/10/26 02:04:39;;;;;;;29.90;13.32;;;;;;;;;;5108075;28;20272;-80
2023/10/26 02:07:05;;;;;;;;;;;;;;;;;;5113945;28;20085;-80
2023/10/26 02:09:31;;;;;;;28.02;13.77;;;;;;;;;;5116919;28;19919;-80
2023/10/26 02:11:57;;;;;;;38.67;20.83;;;;;;;;;;5119681;28;20468;-81
2023/10/26 02:14:23;;;;;;;27.67;14.65;;;;;;;;;;5113125;28;20392;-79
2023/10/26 02:16:49;;;;;;;35.83;17.40;;;;;;;;;;5130830;28;20365;-79
2023/10/26 02:19:16;;;;;;;;;;;;;;;;;;5114370;28;20440;-80
2023/10/26 02:21:42;;;;;;;33.25;18.88;;;;;;;;;;5123625;27;19919;-80
2023/10/26 02:24:08;;;;;;;;;;;;;;;;;;5115253;28;20047;-79
2023/10/26 02:26:34;;;;;;;36.92;19.30;;;;;;;;;;5113651;28;19927;-81
2023/10/26 02:29:00;;;;;;;35.25;18.67;;;;;;;;;;5129903;27;20123;-79
2023/10/26 02:31:26;;;;;;;;;;;;;;;;;;5098060;28;20059;-80
2023/10/26 02:33:52;;;;;;;29.48;13.85;;;;;;;;;;5117523;27;20391;-79
2023/10/26 02:36:18;;;;;;;36.08;21.08;;;;;;;;;;5117795;27;20503;-80
2023/10/26 02:38:44;;;;;;;;;;;;;;;;;;5116399;27;20047;-79
2023/10/26 02:41:10;;;;;;;44.45;21.50;;;;;;;;;;5100207;28;20395;-79
2023/10/26 02:43:36;;;;;;;;;;;;;;;;;;5098044;28;20080;-80
2023/10/26 02:46:04;;;;;;;38.90;20.25;;;;;;;;;;5120735;27;19919;-79
2023/10/26 02:48:31;;;;;;;34.45;19.30;;;;;;;;;;5097228;28;20477;-79
2023/10/26 02:50:57;;;;;;;38.40;22.55;;;;;;;;;;5097078;27;20439;-80
2023/10/26 02:53:23;;;;;;;;;;;;;;;;;;5128823;27;20146;-80
2023/10/26 02:55:49;;;;;;;37.55;17.77;;;;;;;;;;5107094;28;20396;-79
2023/10/26 02:58:15;;;;;;;;;;;;;;;;;;5114638;28;20493;-80
2023/10/26 03:00:41;;;;;;;34.95;18.85;;;;;;;;;;5125362;27;19923;-81
2023/10/26 03:03:07;;;;;;;;;;;;;;;;;;5118832;27;20071;-80
2023/10/26 03:05:33;;;;;;;46.20;23.25;;;;;;;;;;5113506;27;20387;-79
2023/10/26 03:07:59;;;;;;;;;;;;;;;;;;5133902;27;20077;-79
2023/10/26 03:10:27;;;;;;;37.58;18.15;;;;;;;;;;5097196;27;19923;-79
2023/10/26 03:12:53;;;;;;;37.92;19.30;;;;;;;;;;5121720;27;20048;-79
2023/10/26 03:15:19;;;;;;;;;;;;;;;;;;5128751;27;20040;-79
2023/10/26 03:17:45;;;;;;;30.52;13.18;;;;;;;;;;5107178;27;19923;-80
2023/10/26 03:20:11;;;;;;;;;;;;;;;;;;5134413;27;20043;-79
2023/10/26 03:22:37;;;;;;;42.60;23.42;;;;;;;;;;5102800;28;20375;-80
2023/10/26 03:25:05;;;;;;;43.40;24.55;;;;;;;;;;5095351;28;20055;-81
2023/10/26 03:27:31;;;;;;;41.13;23.85;;;;;;;;;;5100356;27;20581;-79
2023/10/26 03:29:57;;;;;;;44.08;25.10;;;;;;;;;;5105371;28;20035;-80
2023/10/26 03:32:23;;;;;;;;;;;;;;;;;;5086036;27;20051;-80
2023/10/26 03:34:49;;;;;;;39.45;20.83;;;;;;;;;;5121922;27;20010;-80
2023/10/26 03:37:16;;;;;;;45.03;20.35;;;;;;;;;;5112867;28;20043;-79
2023/10/26 03:39:42;;;;;;;49.50;19.70;;;;;;;;;;5115491;27;20044;-80
2023/10/26 03:42:08;;;;;;;;;;;;;;;;;;5099383;27;20103;-79
2023/10/26 03:44:34;;;;;;;52.35;26.83;;;;;;;;;;5119373;27;19919;-79
2023/10/26 03:47:00;;;;;;;;;;;;;;;;;;5107878;27;20055;-79
2023/10/26 03:49:26;;;;;;;37.35;18.58;;;;;;;;;;5136574;27;20268;-79
2023/10/26 03:51:52;;;;;;;;;;;;;;;;;;5131053;27;20043;-79
2023/10/26 03:54:18;;;;;;;39.35;20.73;;;;;;;;;;5133527;27;19923;-80
2023/10/26 03:56:44;;;;;;;44.92;21.40;;;;;;;;;;5123762;27;20045;-79
2023/10/26 03:59:10;;;;;;;;;;;;;;;;;;5118727;27;20041;-80
2023/10/26 04:01:36;;;;;;;45.25;23.05;;;;;;;;;;5136876;27;19923;-79
2023/10/26 04:04:02;;;;;;;44.65;23.52;;;;;;;;;;5111361;27;20118;-79
2023/10/26 04:06:30;;;;;;;39.92;22.13;;;;;;;;;;5132705;27;20039;-79
2023/10/26 04:08:56;;;;;;;34.92;19.13;;;;;;;;;;5123496;27;20091;-80
2023/10/26 04:11:24;;;;;;;42.50;20.80;;;;;;;;;;5118935;27;20074;-80
2023/10/26 04:13:50;;;;;;;44.25;24.08;;;;;;;;;;5136383;27;20114;-79
2023/10/26 04:16:16;;;;;;;;;;;;;;;;;;5102660;27;20437;-80
2023/10/26 04:18:42;;;;;;;45.72;22.13;;;;;;;;;;5135328;27;19918;-80
2023/10/26 04:21:08;;;;;;;38.80;18.17;;;;;;;;;;5135660;27;20050;-79
2023/10/26 04:23:34;;;;;;;44.83;25.25;;;;;;;;;;5114169;27;20050;-80
2023/10/26 04:26:00;;;;;;;;;;;;;;;;;;5115534;27;20078;-79
2023/10/26 04:28:26;;;;;;;43.05;24.42;;;;;;;;;;5119133;27;20343;-81
2023/10/26 04:30:53;;;;;;;;;;;;;;;;;;5101430;27;20043;-80
2023/10/26 04:33:19;;;;;;;39.45;21.17;;;;;;;;;;5116648;27;20345;-79
2023/10/26 04:35:45;;;;;;;;;;;;;;;;;;5133028;27;20043;-79
2023/10/26 04:38:11;;;;;;;36.05;18.05;;;;;;;;;;5099610;27;20024;-79
2023/10/26 04:40:39;;;;;;;37.40;19.90;;;;;;;;;;5104085;27;20086;-79
2023/10/26 04:43:06;;;;;;;36.42;20.35;;;;;;;;;;5115922;27;20047;-79
2023/10/26 04:45:32;;;;;;;40.58;22.05;;;;;;;;;;5126239;27;20046;-79
2023/10/26 04:47:58;;;;;;;32.10;17.75;;;;;;;;;;5131932;27;20047;-79
2023/10/26 04:50:25;;;;;;;40.55;19.98;;;;;;;;;;5116622;27;20058;-79
2023/10/26 04:52:51;;;;;;;43.30;20.88;;;;;;;;;;5098604;27;20595;-83
2023/10/26 04:55:17;;;;;;;;;;;;;;;;;;5111090;27;20035;-79
2023/10/26 04:57:43;;;;;;;31.85;16.42;;;;;;;;;;5115466;27;20371;-79
2023/10/26 05:00:09;;;;;;;;;;;;;;;;;;5125491;27;20035;-79
2023/10/26 05:02:36;;;;;;;42.95;20.23;;;;;;;;;;5124184;27;19923;-79
2023/10/26 05:05:03;;;;;;;43.70;24.77;;;;;;;;;;5135192;27;20065;-79
2023/10/26 05:07:30;;;;;;;41.38;23.42;;;;;;;;;;5098209;27;20051;-79
2023/10/26 05:09:56;;;;;;;33.28;17.50;;;;;;;;;;5105813;27;20055;-81
2023/10/26 05:12:22;;;;;;;38.50;20.50;;;;;;;;;;5098156;27;20083;-79
2023/10/26 05:14:48;;;;;;;;;;;;;;;;;;5104039;27;20060;-79
2023/10/26 05:17:14;;;;;;;43.13;19.58;;;;;;;;;;5124417;27;20034;-79
2023/10/26 05:19:40;;;;;;;45.25;20.30;;;;;;;;;;5115091;27;20092;-79
2023/10/26 05:22:06;;;;;;;;;;;;;;;;;;5098120;27;20042;-79
2023/10/26 05:24:32;;;;;;;53.15;26.90;;;;;;;;;;5116177;27;20002;-79
2023/10/26 05:26:58;;;;;;;49.80;23.80;;;;;;;;;;5113455;27;20054;-81
2023/10/26 05:29:24;;;;;;;49.17;23.13;;;;;;;;;;5127335;27;20530;-79
2023/10/26 05:31:51;;;;;;;53.67;22.75;;;;;;;;;;5114716;28;20396;-79
2023/10/26 05:34:17;;;;;;;52.78;25.17;;;;;;;;;;5112565;28;20181;-79
2023/10/26 05:36:43;;;;;;;43.65;20.05;;;;;;;;;;5106785;28;20148;-79
2023/10/26 05:39:08;;;;;;;;;;;;;;;;;;5096708;27;20047;-79
2023/10/26 05:41:35;;;;;;;56.03;23.25;;;;;;;;;;5125076;27;20365;-80
2023/10/26 05:44:01;;;;;;;;;;;;;;;;;;5110634;28;20133;-81
2023/10/26 05:46:27;;;;;;;47.97;24.30;;;;;;;;;;5097404;28;20399;-79
2023/10/26 05:48:53;;;;;;;;;;;;;;;;;;5097985;28;20051;-79
2023/10/26 05:51:19;;;;;;;43.28;22.80;;;;;;;;;;5096409;28;19924;-80
2023/10/26 05:53:45;;;;;;;;;;;;;;;;;;5114843;28;20079;-79
2023/10/26 05:56:11;;;;;;;52.42;24.90;;;;;;;;;;5115222;27;20355;-79
2023/10/26 05:58:37;;;;;;;;;;;;;;;;;;5134528;27;20062;-79
2023/10/26 06:01:03;;;;;;;47.35;23.25;;;;;;;;;;5118341;27;20359;-81
2023/10/26 06:03:29;;;;;;;44.70;23.55;;;;;;;;;;5135121;27;20088;-79
2023/10/26 06:05:59;;;;;;;45.65;21.85;;;;;;;;;;5122623;27;20043;-79
2023/10/26 06:08:25;;;;;;;44.65;23.67;;;;;;;;;;5135467;27;20057;-79
2023/10/26 06:10:52;;;;;;;;;;;;;;;;;;5101761;27;20069;-80
2023/10/26 06:13:18;;;;;;;35.63;17.77;;;;;;;;;;5110292;27;19969;-79
2023/10/26 06:15:44;;;;;;;55.60;24.75;;;;;;;;;;5118674;27;20050;-79
2023/10/26 06:18:10;;;;;;;;;;;;;;;;;;5099882;27;20043;-80
2023/10/26 06:20:36;;;;;;;43.10;23.90;;;;;;;;;;5118074;27;19945;-80
2023/10/26 06:23:02;;;;;;;46.28;24.60;;;;;;;;;;5134848;27;20070;-80
2023/10/26 06:25:28;;;;;;;;;;;;;;;;;;5117727;27;20065;-80
2023/10/26 06:27:55;;;;;;;50.55;25.67;;;;;;;;;;5121365;27;19919;-80
2023/10/26 06:30:21;;;;;;;48.40;25.58;;;;;;;;;;5100912;27;20142;-80
2023/10/26 06:32:47;;;;;;;;;;;;;;;;;;5111939;27;20047;-79
2023/10/26 06:35:13;;;;;;;50.03;25.00;;;;;;;;;;5135851;27;20018;-79
2023/10/26 06:37:39;;;;;;;;;;;;;;;;;;5138622;27;20467;-79
2023/10/26 06:40:07;;;;;;;53.22;25.75;;;;;;;;;;5120074;27;19981;-83
2023/10/26 06:42:33;;;;;;;55.20;26.20;;;;;;;;;;5099634;27;20050;-79
2023/10/26 06:44:59;;;;;;;56.03;26.42;;;;;;;;;;5121999;27;20055;-79
2023/10/26 06:47:25;;;;;;;51.42;26.00;;;;;;;;;;5109952;27;20043;-79
2023/10/26 06:49:51;;;;;;;56.97;26.60;;;;;;;;;;5117596;27;20051;-81
2023/10/26 06:52:17;;;;;;;;;;;;;;;;;;5115940;27;20043;-83
2023/10/26 06:54:47;;;;;;;61.65;26.88;;;;;;;;;;5127480;27;19943;-80
2023/10/26 06:57:14;;;;;;;62.80;27.60;;;;;;;;;;5117475;27;20059;-80
2023/10/26 06:59:41;;;;;;;;;;;;;;;;;;5135223;27;20048;-79
2023/10/26 07:02:07;;;;;;;;;;;;;;;;;;5101733;27;19919;-79
2023/10/26 07:04:33;;;;;;;66.65;26.45;;;;;;;;;;5115065;27;19926;-78
2023/10/26 07:06:59;;;;;;;;;;;;;;;;;;5137114;27;20579;-79
2023/10/26 07:09:25;;;;;;;62.70;24.70;;;;;;;;;;5131687;27;19919;-79
2023/10/26 07:11:52;;;;;;;84.38;30.45;;;;;;;;;;5116182;27;20386;-78
2023/10/26 07:14:19;;;;;;;71.63;29.92;;;;;;;;;;5143726;27;20103;-82
2023/10/26 07:16:45;;;;;;;62.72;23.17;;;;;;;;;;5127929;27;20082;-80
2023/10/26 07:19:11;;;;;;;66.97;21.38;;;;;;;;;;5124958;27;20042;-84
2023/10/26 07:21:37;;;;;;;89.65;28.58;;;;;;;;;;5125252;27;20093;-83
2023/10/26 07:24:03;;;;;;;74.50;31.55;;;;;;;;;;5111627;27;20050;-82
2023/10/26 07:26:29;;;;;;;55.97;19.92;;;;;;;;;;5114022;27;20043;-82
2023/10/26 07:28:57;;;;;;;84.80;30.33;;;;;;;;;;5134233;27;20041;-81
2023/10/26 07:31:23;;;;;;;55.38;23.38;;;;;;;;;;5132388;27;20043;-83
2023/10/26 07:33:50;;;;;;;55.50;27.88;;;;;;;;;;5120208;27;20133;-81
2023/10/26 07:36:16;;;;;;;45.80;23.02;;;;;;;;;;5133171;27;20192;-83
2023/10/26 07:38:42;;;;;;;;;;;;;;;;;;5116103;27;20047;-82
2023/10/26 07:41:08;;;;;;;51.65;25.05;;;;;;;;;;5115913;27;19918;-79
2023/10/26 07:43:35;;;;;;;39.03;18.58;;;;;;;;;;5128668;27;20133;-81
2023/10/26 07:46:01;;;;;;;53.05;25.23;;;;;;;;;;5128597;27;20043;-81
2023/10/26 07:48:27;;;;;;;;;;;;;;;;;;5105045;27;20058;-81
2023/10/26 07:50:53;;;;;;;46.25;22.85;;;;;;;;;;5129973;27;20368;-81
2023/10/26 07:53:19;;;;;;;;;;;;;;;;;;5114311;27;20051;-81
2023/10/26 07:55:45;;;;;;;41.70;18.63;;;;;;;;;;5112295;27;19919;-79
2023/10/26 07:58:11;;;;;;;;;;;;;;;;;;5108102;27;20039;-78
2023/10/26 08:00:38;;;;;;;39.00;19.55;;;;;;;;;;5121820;27;20422;-78
2023/10/26 08:03:04;;;;;;;;;;;;;;;;;;5112551;27;20039;-79
2023/10/26 08:05:30;;;;;;;36.95;19.75;;;;;;;;;;5123146;27;19920;-77
2023/10/26 08:07:56;;;;;;;47.13;24.00;;;;;;;;;;5125540;27;20043;-78
2023/10/26 08:10:22;;;;;;;;;;;;;;;;;;5105965;27;20463;-77
2023/10/26 08:12:52;;;;;;;42.50;23.67;;;;;;;;;;5128442;27;19988;-77
2023/10/26 08:15:18;;;;;;;33.78;17.95;;;;;;;;;;5121831;27;20039;-79
2023/10/26 08:17:45;;;;;;;36.88;21.27;;;;;;;;;;5126070;27;20042;-77
2023/10/26 08:20:12;;;;;;;36.78;22.05;;;;;;;;;;5124589;27;20483;-81
2023/10/26 08:22:38;;;;;;;36.50;19.95;;;;;;;;;;5115532;27;20058;-82
2023/10/26 08:25:04;;;;;;;;;;;;;;;;;;5100301;27;20069;-81
2023/10/26 08:27:31;;;;;;;41.17;19.33;;;;;;;;;;5109698;27;19923;-82
2023/10/26 08:29:57;;;;;;;32.17;15.25;;;;;;;;;;5100387;27;20043;-79
2023/10/26 08:32:23;;;;;;;25.58;13.55;;;;;;;;;;5116406;27;20046;-83
2023/10/26 08:34:49;;;;;;;;;;;;;;;;;;5134736;27;20046;-79
2023/10/26 08:37:17;;;;;;;29.55;17.27;;;;;;;;;;5132815;27;19919;-82
2023/10/26 08:39:43;;;;;;;29.05;16.58;;;;;;;;;;5128392;27;20042;-82
2023/10/26 08:42:09;;;;;;;30.63;18.00;;;;;;;;;;5110497;27;20054;-80
2023/10/26 08:44:35;;;;;;;;;;;;;;;;;;5103092;27;20043;-78
2023/10/26 08:47:05;;;;;;;30.55;17.58;;;;;;;;;;5115626;27;19919;-83
2023/10/26 08:49:32;;;;;;;30.80;17.52;;;;;;;;;;5128733;27;20039;-82
2023/10/26 08:51:58;;;;;;;32.97;17.35;;;;;;;;;;5139325;27;20105;-82
2023/10/26 08:54:26;;;;;;;27.65;16.48;;;;;;;;;;5101240;27;20490;-77
2023/10/26 08:56:53;;;;;;;26.80;16.75;;;;;;;;;;5134618;27;20046;-84
2023/10/26 08:59:19;;;;;;;28.00;15.13;;;;;;;;;;5131520;27;20043;-81
2023/10/26 09:01:45;;;;;;;;;;;;;;;;;;5106419;27;20039;-80
2023/10/26 09:04:11;;;;;;;28.70;16.60;;;;;;;;;;5107646;27;19934;-82
2023/10/26 09:06:45;;;;;;;31.65;16.98;;;;;;;;;;5125183;27;20287;-82
2023/10/26 09:09:11;;;;;;;25.23;14.45;;;;;;;;;;5135479;27;20070;-81
2023/10/26 09:11:37;;;;;;;;;;;;;;;;;;5097237;27;20082;-79
2023/10/26 09:14:14;;;;;;;23.87;12.00;;;;;;;;;;5123653;27;19926;-80
2023/10/26 09:16:46;;;;;;;21.90;11.50;;;;;;;;;;5134583;27;20031;-80
2023/10/26 09:19:13;;;;;;;37.05;15.52;;;;;;;;;;5127469;27;20039;-79
2023/10/26 09:21:49;;;;;;;29.15;14.15;;;;;;;;;;5113767;27;20084;-79
2023/10/26 09:24:21;;;;;;;23.77;15.20;;;;;;;;;;5117846;27;20042;-79
2023/10/26 09:26:48;;;;;;;25.20;15.65;;;;;;;;;;5130710;27;20039;-79
2023/10/26 09:29:14;;;;;;;20.60;12.23;;;;;;;;;;5097782;27;20065;-79
2023/10/26 09:31:59;;;;;;;23.80;14.27;;;;;;;;;;5134308;27;20078;-79
2023/10/26 09:34:27;;;;;;;24.08;15.00;;;;;;;;;;5118505;27;20125;-79
2023/10/26 09:37:05;;;;;;;25.27;14.70;;;;;;;;;;5100734;27;20054;-79
2023/10/26 09:39:33;;;;;;;26.30;14.13;;;;;;;;;;5114244;27;20526;-79
2023/10/26 09:42:01;;;;;;;23.60;13.77;;;;;;;;;;5117355;27;20403;-79
2023/10/26 09:44:28;;;;;;;29.65;15.57;;;;;;;;;;5106782;28;20051;-81
2023/10/26 09:46:55;;;;;;;23.40;14.95;;;;;;;;;;5114812;28;20433;-79
2023/10/26 09:49:22;;;;;;;25.80;15.43;;;;;;;;;;5132629;27;20047;-79
2023/10/26 09:51:49;;;;;;;22.17;15.15;;;;;;;;;;5116955;27;20058;-79
2023/10/26 09:54:15;;;;;;;23.48;15.27;;;;;;;;;;5134891;27;20106;-80
2023/10/26 09:56:45;;;;;;;25.73;15.70;;;;;;;;;;5133780;27;20121;-80
2023/10/26 09:59:12;;;;;;;24.70;15.68;;;;;;;;;;5109490;28;20480;-79
2023/10/26 10:01:40;;;;;;;19.70;12.27;;;;;;;;;;5085402;27;20054;-78
2023/10/26 10:04:09;;;;;;;24.70;14.70;;;;;;;;;;5115749;27;20123;-80
2023/10/26 10:06:52;;;;;;;24.23;13.95;;;;;;;;;;5119633;27;20042;-79
2023/10/26 10:09:25;;;;;;;21.08;12.60;;;;;;;;;;5127495;27;20050;-78
2023/10/26 10:12:12;;;;;;;17.40;10.52;;;;;;;;;;5118958;27;20588;-80
2023/10/26 10:14:38;;;;;;;;;;;;;;;;;;5134587;27;20055;-80
2023/10/26 10:17:04;;;;;;;21.85;14.05;;;;;;;;;;5113617;28;20014;-80
2023/10/26 10:19:31;;;;;;;;;;;;;;;;;;5106396;28;20043;-81
2023/10/26 10:21:58;;;;;;;19.38;13.00;;;;;;;;;;5133239;27;19941;-80
2023/10/26 10:24:24;;;;;;;;;;;;;;;;;;5135067;27;20071;-80
2023/10/26 10:27:25;;;;;;;23.23;12.75;;;;;;;;;;5125733;27;19919;-80
2023/10/26 10:29:55;;;;;;;20.00;12.82;;;;;;;;;;5026561;28;20668;-80
2023/10/26 10:32:40;;;;;;;20.45;13.15;;;;;;;;;;5106003;27;20138;-80
2023/10/26 10:35:07;;;;;;;19.45;11.75;;;;;;;;;;5119800;28;20484;-75
2023/10/26 10:37:33;;;;;;;18.15;10.77;;;;;;;;;;5131644;27;20049;-77
2023/10/26 10:39:59;;;;;;;;;;;;;;;;;;5112624;28;20048;-77
2023/10/26 10:42:25;;;;;;;19.15;11.95;;;;;;;;;;5116133;27;19919;-81
2023/10/26 10:44:51;;;;;;;;;;;;;;;;;;5115267;27;20039;-76
2023/10/26 10:47:17;;;;;;;17.17;10.60;;;;;;;;;;5117380;27;20002;-81
2023/10/26 10:49:43;;;;;;;;;;;;;;;;;;5119789;27;20045;-82
2023/10/26 10:52:13;;;;;;;15.77;10.30;;;;;;;;;;5107413;27;20005;-81
2023/10/26 10:54:40;;;;;;;18.23;11.63;;;;;;;;;;5135310;27;20449;-82
2023/10/26 10:57:06;;;;;;;21.42;14.15;;;;;;;;;;5116856;27;20502;-81
2023/10/26 10:59:32;;;;;;;;;;;;;;;;;;5101022;27;20191;-81
2023/10/26 11:02:07;;;;;;;18.52;11.57;;;;;;;;;;5125095;27;20445;-81
2023/10/26 11:04:33;;;;;;;15.73;10.00;;;;;;;;;;5137877;27;20057;-81
2023/10/26 11:06:59;;;;;;;;;;;;;;;;;;5137506;27;20046;-81
2023/10/26 11:09:26;;;;;;;14.70;9.80;;;;;;;;;;5119405;27;19942;-82
2023/10/26 11:11:52;;;;;;;12.95;7.75;;;;;;;;;;5103271;27;20095;-81
2023/10/26 11:14:20;;;;;;;14.00;7.43;;;;;;;;;;5124309;27;20063;-81
2023/10/26 11:16:46;;;;;;;10.23;6.60;;;;;;;;;;5117113;27;20622;-81
2023/10/26 11:19:12;;;;;;;8.13;5.43;;;;;;;;;;5117001;27;20043;-81
2023/10/26 11:21:39;;;;;;;16.73;9.18;;;;;;;;;;5116381;27;20053;-82
2023/10/26 11:24:06;;;;;;;11.32;7.13;;;;;;;;;;5127468;27;20082;-82
2023/10/26 11:26:32;;;;;;;14.27;8.80;;;;;;;;;;5133555;27;20425;-82
2023/10/26 11:29:01;;;;;;;13.52;9.50;;;;;;;;;;5137453;27;20038;-83
2023/10/26 11:31:34;;;;;;;12.68;7.63;;;;;;;;;;5137816;27;20073;-82
2023/10/26 11:34:02;;;;;;;6.70;4.35;;;;;;;;;;5119970;27;20506;-83
2023/10/26 11:36:29;;;;;;;15.50;8.25;;;;;;;;;;5120365;27;20050;-83
2023/10/26 11:38:55;;;;;;;11.68;7.72;;;;;;;;;;5099800;27;20047;-83
2023/10/26 11:41:28;;;;;;;6.57;4.95;;;;;;;;;;5116060;27;20055;-83
2023/10/26 11:43:54;;;;;;;11.77;7.93;;;;;;;;;;5100034;27;20494;-83
2023/10/26 11:46:36;;;;;;;11.15;7.40;;;;;;;;;;5117364;27;20452;-83
2023/10/26 11:49:06;;;;;;;6.72;4.40;;;;;;;;;;5120066;27;20558;-83
2023/10/26 11:51:33;;;;;;;8.10;5.10;;;;;;;;;;5137204;27;20116;-83
2023/10/26 11:54:10;;;;;;;11.65;7.40;;;;;;;;;;5110394;27;20487;-83
2023/10/26 11:56:36;;;;;;;10.05;6.22;;;;;;;;;;5101097;27;20104;-82
2023/10/26 11:59:02;;;;;;;9.95;6.63;;;;;;;;;;5116630;27;20454;-83
2023/10/26 12:01:28;;;;;;;7.90;5.30;;;;;;;;;;5116591;27;20053;-82
2023/10/26 12:03:54;;;;;;;12.93;8.35;;;;;;;;;;5099546;27;20054;-82
2023/10/26 12:06:20;;;;;;;9.57;6.65;;;;;;;;;;5129975;27;20047;-82
2023/10/26 12:08:47;;;;;;;12.18;7.70;;;;;;;;;;5102997;27;20058;-85
2023/10/26 12:11:13;;;;;;;9.00;6.30;;;;;;;;;;5119718;27;20046;-82
2023/10/26 12:13:39;;;;;;;10.35;6.57;;;;;;;;;;5113836;27;20047;-82
2023/10/26 12:16:05;;;;;;;7.60;4.43;;;;;;;;;;5136926;27;20129;-82
2023/10/26 12:18:33;;;;;;;9.65;6.60;;;;;;;;;;5120201;27;20038;-83
2023/10/26 12:20:59;;;;;;;10.90;7.20;;;;;;;;;;5119015;27;20399;-83
2023/10/26 12:23:25;;;;;;;10.23;7.30;;;;;;;;;;5099065;27;20043;-82
2023/10/26 12:25:52;;;;;;;10.48;7.05;;;;;;;;;;5115288;27;20039;-82
2023/10/26 12:28:18;;;;;;;13.05;7.30;;;;;;;;;;5116552;27;20129;-82
2023/10/26 12:30:45;;;;;;;9.15;6.50;;;;;;;;;;5116496;27;20043;-83
2023/10/26 12:33:12;;;;;;;12.15;7.20;;;;;;;;;;5116684;27;20042;-82
2023/10/26 12:35:38;;;;;;;12.45;7.53;;;;;;;;;;5099086;27;20100;-82
2023/10/26 12:38:04;;;;;;;12.57;8.00;;;;;;;;;;5114937;27;20043;-82
2023/10/26 12:40:30;;;;;;;10.15;6.32;;;;;;;;;;5114986;27;20051;-82
2023/10/26 12:42:57;;;;;;;9.63;6.80;;;;;;;;;;5115261;27;20043;-82
2023/10/26 12:45:23;;;;;;;7.43;5.30;;;;;;;;;;5099271;27;20047;-81
2023/10/26 12:47:49;;;;;;;10.57;6.70;;;;;;;;;;5115430;27;20042;-85
2023/10/26 12:50:16;;;;;;;11.35;6.30;;;;;;;;;;5098990;27;20369;-81
2023/10/26 12:52:42;;;;;;;10.95;6.78;;;;;;;;;;5099909;27;20125;-82
2023/10/26 12:55:08;;;;;;;12.50;8.13;;;;;;;;;;5121211;27;20153;-81
2023/10/26 12:57:34;;;;;;;12.13;7.85;;;;;;;;;;5115960;27;20043;-81
2023/10/26 13:00:00;;;;;;;;;;;;;;;;;;5098898;27;20047;-82
2023/10/26 13:02:26;;;;;;;12.13;7.93;;;;;;;;;;5115630;27;19946;-81
2023/10/26 13:04:52;;;;;;;;;;;;;;;;;;5115175;27;20133;-81
2023/10/26 13:07:18;;;;;;;12.65;7.20;;;;;;;;;;5114886;27;19919;-82
2023/10/26 13:09:44;;;;;;;10.20;6.68;;;;;;;;;;5114892;27;20051;-84
2023/10/26 13:12:10;;;;;;;;;;;;;;;;;;5098249;27;20621;-81
2023/10/26 13:14:36;;;;;;;11.38;6.97;;;;;;;;;;5115484;28;19920;-81
2023/10/26 13:17:02;;;;;;;;;;;;;;;;;;5125241;27;20047;-81
2023/10/26 13:19:28;;;;;;;10.38;5.97;;;;;;;;;;5098167;27;20017;-81
2023/10/26 13:21:54;;;;;;;10.23;6.97;;;;;;;;;;5097295;27;20039;-82
2023/10/26 13:24:20;;;;;;;;;;;;;;;;;;5115695;27;20039;-81
2023/10/26 13:26:46;;;;;;;12.40;6.70;;;;;;;;;;5114497;27;20371;-81
2023/10/26 13:29:12;;;;;;;;;;;;;;;;;;5115425;27;20047;-81
2023/10/26 13:31:38;;;;;;;13.05;7.15;;;;;;;;;;5115273;28;19925;-81
2023/10/26 13:34:07;;;;;;;;;;;;;;;;;;5098399;27;20538;-81
2023/10/26 13:36:33;;;;;;;9.35;6.30;;;;;;;;;;5114299;27;20337;-81
2023/10/26 13:38:59;;;;;;;;;;;;;;;;;;5114637;27;20047;-80
2023/10/26 13:41:26;;;;;;;10.63;7.13;;;;;;;;;;5111362;28;20422;-78
2023/10/26 13:43:53;;;;;;;12.98;6.80;;;;;;;;;;5094220;27;20076;-78
2023/10/26 13:46:19;;;;;;;12.70;7.30;;;;;;;;;;5115902;27;20051;-80
2023/10/26 13:48:45;;;;;;;;;;;;;;;;;;5109622;27;20436;-80
2023/10/26 13:51:17;;;;;;;11.90;6.85;;;;;;;;;;5134223;27;19919;-77
2023/10/26 13:53:43;;;;;;;14.90;7.68;;;;;;;;;;5128870;27;20039;-78
2023/10/26 13:56:09;;;;;;;;;;;;;;;;;;5112704;28;20059;-77
2023/10/26 13:58:35;;;;;;;11.27;7.03;;;;;;;;;;5097214;28;19920;-80
2023/10/26 14:01:01;;;;;;;;;;;;;;;;;;5113624;28;20138;-80
2023/10/26 14:03:27;;;;;;;12.18;7.57;;;;;;;;;;5133847;27;20018;-80
2023/10/26 14:05:53;;;;;;;;;;;;;;;;;;5134748;27;20473;-80
2023/10/26 14:08:19;;;;;;;12.18;8.00;;;;;;;;;;5126184;27;20013;-80
2023/10/26 14:10:46;;;;;;;13.07;8.25;;;;;;;;;;5133930;27;20038;-80
2023/10/26 14:13:13;;;;;;;12.25;7.50;;;;;;;;;;5117266;27;20043;-79
2023/10/26 14:15:39;;;;;;;12.98;7.95;;;;;;;;;;5101215;27;20138;-80
2023/10/26 14:18:05;;;;;;;;;;;;;;;;;;5137957;27;20039;-80
2023/10/26 14:20:32;;;;;;;12.07;7.13;;;;;;;;;;5138628;27;19923;-80
2023/10/26 14:22:58;;;;;;;11.82;8.23;;;;;;;;;;5138278;27;20054;-80
2023/10/26 14:25:24;;;;;;;;;;;;;;;;;;5120796;27;20202;-79
2023/10/26 14:27:50;;;;;;;13.57;8.07;;;;;;;;;;5137541;27;20055;-80
2023/10/26 14:30:16;;;;;;;13.68;8.35;;;;;;;;;;5128755;27;20099;-80
2023/10/26 14:32:42;;;;;;;;;;;;;;;;;;5117990;27;20048;-80
2023/10/26 14:35:08;;;;;;;10.30;6.15;;;;;;;;;;5117438;27;19919;-80
2023/10/26 14:37:34;;;;;;;12.07;7.65;;;;;;;;;;5100764;27;20519;-80
2023/10/26 14:40:00;;;;;;;13.27;7.97;;;;;;;;;;5100133;27;20054;-81
2023/10/26 14:42:26;;;;;;;;;;;;;;;;;;5100101;27;20090;-81
2023/10/26 14:44:52;;;;;;;11.73;6.43;;;;;;;;;;5116673;27;19920;-81
2023/10/26 14:47:18;;;;;;;;;;;;;;;;;;5099518;27;20050;-82
2023/10/26 14:49:46;;;;;;;9.40;6.07;;;;;;;;;;5099802;27;19919;-83
2023/10/26 14:52:12;;;;;;;9.18;5.82;;;;;;;;;;5082751;27;20047;-80